• vieta
  • image
  • image
  • image
mod_vvisit_countermod_vvisit_countermod_vvisit_countermod_vvisit_countermod_vvisit_countermod_vvisit_counter
mod_vvisit_counterŠiandien531
mod_vvisit_counterVakar896
mod_vvisit_counterŠią savaitę1780
mod_vvisit_counterPraėjusią savaitę4057
mod_vvisit_counterŠį mėnesį11002
mod_vvisit_counterPraėjusį mėnesį17211
mod_vvisit_counterViso956999

Mes turime: 77 svečius online
Jūsų IP: 54.80.102.170
 , 
Šiandien: Rugp 21, 2018
Oro uostas / Naujienos / 2015 Sausis

2015 Sausis

Š.m. sausio 20 d. tarptautiniame Šiaulių oro uoste apsilankė Šiaulių universiteto Verslo administravimo studijų programos logistikos valdymo specializacijos 4 kurso studentai lydimi Vadybos katedros dėstytojos lekt. Inetos Beniušienės. Studentai stebėjo Izraelio aviakompanijos „CAL Cargo Airlines“ orlaivio Boeing 747-400 aptarnavimo procesą bei iš arčiau susipažino su antžeminių paslaugų aptarnavimo specifika.

 

Studentų atsiliepimus ir įspūdžius skaitykite čia:

http://www.su.lt/smf/naujienos/16053-tarptautiniame-iauli-oro-uoste

Šiandien

Trečiadienis, 22 Rugpjūtis 2018

Orų prognozė aviacijai

[source: ADDS]
METAR
EYSA 210520Z 26009KT CAVOK 16/14 Q1012 BLU NOSIG =
TAF
TAF EYSA 210509Z 2106/2115 32008G18KT 9000 BKN040 TEMPO 2106/2110 4000 SHRA SCT008 BKN020CB TEMPO 2110/2115 SCT020CB =
SR / SS: 03:16 / 17:45 UTC (EYSA 2018-08-22)

Paieška

Lankytojai

Mes turime 77 svečius online

tic logo lt